DEOHL EDAH-EDHL
Flight info
| Callsign | DEOHL |
|---|---|
| Flight time | N/A |
| Altitude | |
| Route | VFR |
| Aircraft | DA40 |
Departure
| Time | 2026-05-06 16:47 |
|---|---|
| Airport | Heringsdorf Airport (EDAH) |
Arrival
| Time | N/A |
|---|---|
| Airport | Lübeck Blankensee Airport (EDHL) |
| Time | Latitude | Longitude | Altitude | Speed | Heading |
|---|---|---|---|---|---|
| 2026-05-06 16:45 | 53.87861 | 14.15297 | 74 ft | 0 kts | 105° |
| 2026-05-06 16:46 | 53.87847 | 14.15378 | 75 ft | 33 kts | 106° |
| 2026-05-06 16:46 | 53.87723 | 14.16129 | 71 ft | 92 kts | 106° |
| 2026-05-06 16:46 | 53.87753 | 14.17127 | 373 ft | 89 kts | 41° |
| 2026-05-06 16:47 | 53.88385 | 14.17138 | 537 ft | 99 kts | 342° |
| 2026-05-06 16:47 | 53.89051 | 14.16803 | 790 ft | 102 kts | 343° |
| 2026-05-06 16:47 | 53.89712 | 14.16411 | 1079 ft | 100 kts | 335° |
| 2026-05-06 16:47 | 53.90327 | 14.15920 | 1386 ft | 96 kts | 332° |
| 2026-05-06 16:48 | 53.90885 | 14.15385 | 1736 ft | 91 kts | 328° |
| 2026-05-06 16:48 | 53.91463 | 14.14791 | 1923 ft | 104 kts | 327° |
| 2026-05-06 16:48 | 53.92083 | 14.14260 | 2240 ft | 101 kts | 337° |
| 2026-05-06 16:48 | 53.92758 | 14.13798 | 2457 ft | 107 kts | 335° |
| 2026-05-06 16:49 | 53.93414 | 14.13283 | 2588 ft | 115 kts | 333° |
| 2026-05-06 16:49 | 53.94134 | 14.12626 | 2741 ft | 118 kts | 330° |
| 2026-05-06 16:49 | 53.94865 | 14.11986 | 2939 ft | 118 kts | 330° |
| 2026-05-06 16:49 | 53.95579 | 14.11316 | 3149 ft | 117 kts | 329° |
| 2026-05-06 16:50 | 53.96289 | 14.10594 | 3282 ft | 122 kts | 327° |
| 2026-05-06 16:50 | 53.97015 | 14.09853 | 3393 ft | 126 kts | 328° |
| 2026-05-06 16:50 | 53.97668 | 14.08846 | 3476 ft | 127 kts | 295° |
| 2026-05-06 16:50 | 53.97881 | 14.07919 | 3528 ft | 128 kts | 289° |
| 2026-05-06 16:51 | 53.98245 | 14.06024 | 3749 ft | 124 kts | 287° |
| 2026-05-06 16:51 | 53.98484 | 14.04620 | 3906 ft | 123 kts | 285° |
| 2026-05-06 16:51 | 53.98720 | 14.03210 | 3979 ft | 130 kts | 285° |
| 2026-05-06 16:51 | 53.99013 | 14.01825 | 3999 ft | 122 kts | 296° |
| 2026-05-06 16:52 | 53.99392 | 14.00444 | 3988 ft | 133 kts | 292° |
| 2026-05-06 16:52 | 53.99583 | 13.98991 | 4185 ft | 125 kts | 274° |
| 2026-05-06 16:52 | 53.99642 | 13.97475 | 4189 ft | 135 kts | 273° |
| 2026-05-06 16:52 | 53.99692 | 13.95850 | 4157 ft | 140 kts | 272° |
| 2026-05-06 16:53 | 53.99339 | 13.94646 | 3368 ft | 126 kts | 218° |
| 2026-05-06 16:53 | 53.98771 | 13.94146 | 3413 ft | 27 kts | 355° |
| 2026-05-06 16:53 | 53.98946 | 13.93482 | 1621 ft | 145 kts | 291° |
| 2026-05-06 16:53 | 53.99172 | 13.92923 | 2278 ft | 35 kts | 329° |
| 2026-05-06 16:54 | 53.99800 | 13.92689 | 1071 ft | 121 kts | 345° |
| 2026-05-06 16:54 | 54.00738 | 13.92732 | 15 ft | 139 kts | 5° |
| 2026-05-06 16:54 | 54.01532 | 13.92878 | 74 ft | 76 kts | 1° |
| 2026-05-06 16:54 | 54.01667 | 13.92282 | 13 ft | 69 kts | 308° |
| 2026-05-06 16:55 | 54.01973 | 13.91765 | 163 ft | 52 kts | 315° |
| 2026-05-06 16:55 | 54.02241 | 13.91248 | 6 ft | 98 kts | 310° |
| 2026-05-06 16:55 | 54.02732 | 13.91322 | 5 ft | 100 kts | 50° |
| 2026-05-06 16:55 | 54.03258 | 13.91915 | 10 ft | 90 kts | 20° |
| 2026-05-06 16:56 | 54.03767 | 13.92156 | 42 ft | 66 kts | 354° |
| 2026-05-06 16:56 | 54.04126 | 13.91835 | 5 ft | 54 kts | 320° |
| 2026-05-06 16:56 | 54.04342 | 13.91535 | 4 ft | 17 kts | 317° |
| 2026-05-06 16:56 | 54.04391 | 13.91407 | 4 ft | 11 kts | 295° |
| 2026-05-06 16:57 | 54.04434 | 13.91294 | 4 ft | 13 kts | 326° |
| 2026-05-06 16:57 | 54.03539 | 13.92097 | 4 ft | 2 kts | 19° |
| 2026-05-06 16:57 | 54.03544 | 13.92099 | 4 ft | 2 kts | 18° |